首页
METAR-TAF:

METAR-TAF

机场 :

Newton Municipal Airport

牛顿, 艾奥瓦州, 美国

纬度: 41-41N, 经度: 093-01W, 海拔: 290米

当前天气观测

该预报发布于24分钟前的00:35 UTC
风速11节,风向南转西南,有时为16节阵风
温度 30°C
湿度 55%
气压 1007 hPa
能見度: 16.1公里
天空无云

METAR: KTNU 170035Z AUTO 21011G16KT 10SM CLR 30/20 A2975 RMK A01

时间: 19:59 (00:59 UTC)


TAF: 丢失

超过4000个机场的气象观测和天气预报(METAR&TAF报告)。

可查询的气象台以黄色和红色小点在地图上表示。

将鼠标移到小点上方,可查看气象台名称。

然后点击查看天气观测和预报。

如需切换地图:点击带黑十字的绿色按钮放大地图;点击带横线的绿色按钮缩小地图;或者点击绿色箭头查看邻近地区的地图。


METAR-TAF: